createdAt,value
2024-03-13T00:01:20.268Z,24.08
2024-03-13T00:06:17.401Z,23.58
2024-03-13T00:11:16.664Z,23.32
2024-03-13T00:16:18.951Z,23.02
2024-03-13T00:21:15.264Z,22.76
2024-03-13T00:26:14.543Z,22.40
2024-03-13T00:31:13.845Z,22.25
2024-03-13T00:36:13.128Z,22.39
2024-03-13T00:41:12.434Z,22.15
2024-03-13T00:46:11.603Z,21.72
2024-03-13T00:51:10.748Z,21.65
2024-03-13T00:56:09.845Z,21.91
2024-03-13T01:01:09.187Z,21.92
2024-03-13T01:06:09.480Z,21.99
2024-03-13T01:11:07.827Z,21.65
2024-03-13T01:16:07.937Z,21.42
2024-03-13T01:21:07.233Z,22.18
2024-03-13T01:26:06.535Z,21.46
2024-03-13T01:31:03.852Z,21.22
2024-03-13T01:36:04.988Z,21.75
2024-03-13T01:41:04.309Z,21.58
2024-03-13T01:46:04.624Z,21.47
2024-03-13T01:51:03.018Z,20.99
2024-03-13T01:56:01.206Z,20.99
2024-03-13T02:01:00.638Z,21.13
2024-03-13T02:06:00.828Z,21.19
2024-03-13T02:10:59.957Z,20.95
2024-03-13T02:15:58.106Z,21.56
2024-03-13T02:20:57.397Z,21.43
2024-03-13T02:25:58.706Z,21.14
2024-03-13T02:30:56.060Z,20.92
2024-03-13T02:35:55.178Z,21.14
2024-03-13T02:40:55.480Z,21.19
2024-03-13T02:45:53.864Z,20.98
2024-03-13T02:50:54.975Z,20.99
2024-03-13T02:55:52.213Z,21.13
2024-03-13T03:00:53.733Z,20.98
2024-03-13T03:05:51.847Z,20.89
2024-03-13T03:10:50.395Z,21.16
2024-03-13T03:15:49.450Z,21.24
2024-03-13T03:20:48.504Z,20.51
2024-03-13T03:25:48.810Z,20.17
2024-03-13T03:30:48.358Z,20.26
2024-03-13T03:35:46.302Z,20.91
2024-03-13T03:40:45.663Z,20.57
2024-03-13T03:45:44.991Z,20.50
2024-03-13T03:50:44.107Z,20.89
2024-03-13T03:55:45.424Z,21.14
2024-03-13T04:00:42.758Z,21.19
2024-03-13T04:05:42.077Z,21.21
2024-03-13T04:10:41.393Z,21.52
2024-03-13T04:15:40.735Z,21.53
2024-03-13T04:20:39.872Z,21.64
2024-03-13T04:25:40.059Z,21.75
2024-03-13T04:30:38.173Z,21.91
2024-03-13T04:35:38.527Z,21.84
2024-03-13T04:40:36.649Z,21.82
2024-03-13T04:45:35.984Z,22.17
2024-03-13T04:50:37.124Z,21.96
2024-03-13T04:55:34.493Z,21.98
2024-03-13T05:00:36.828Z,21.24
2024-03-13T05:05:33.132Z,21.68
2024-03-13T05:10:34.284Z,21.69
2024-03-13T05:15:31.612Z,21.56
2024-03-13T05:20:32.765Z,22.06
2024-03-13T05:25:32.151Z,22.18
2024-03-13T05:30:31.291Z,22.02
2024-03-13T05:35:30.607Z,22.70
2024-03-13T05:40:27.929Z,26.62
2024-03-13T05:45:29.070Z,27.75
2024-03-13T05:50:27.526Z,27.96
2024-03-13T05:55:26.018Z,28.39
2024-03-13T06:00:26.131Z,28.78
2024-03-13T06:05:25.425Z,29.61
2024-03-13T06:10:26.549Z,29.83
2024-03-13T06:15:22.891Z,29.36
2024-03-13T06:20:22.197Z,29.78
2024-03-13T06:25:21.530Z,30.02
2024-03-13T06:30:19.824Z,29.87
2024-03-13T06:35:20.245Z,30.69
2024-03-13T06:40:19.401Z,31.13
2024-03-13T06:45:24.620Z,31.25
2024-03-13T06:50:19.670Z,31.17
2024-03-13T06:55:19.011Z,30.95
2024-03-13T07:00:18.252Z,30.79
2024-03-13T07:05:15.528Z,30.97
2024-03-13T07:10:14.973Z,31.04
2024-03-13T07:15:16.104Z,30.55
2024-03-13T07:20:14.425Z,29.97
2024-03-13T07:25:11.840Z,29.73
2024-03-13T07:30:11.996Z,29.48
2024-03-13T07:35:12.136Z,30.19
2024-03-13T07:40:11.524Z,30.76
2024-03-13T07:45:09.640Z,30.89
2024-03-13T07:50:08.961Z,30.83
2024-03-13T07:55:08.388Z,30.72
2024-03-13T08:00:08.535Z,30.95
2024-03-13T08:05:06.868Z,28.74
2024-03-13T09:37:37.697Z,31.20
2024-03-13T09:42:35.945Z,30.95
2024-03-13T09:47:36.274Z,30.75
2024-03-13T09:52:36.433Z,29.87
2024-03-13T09:57:34.597Z,29.27
2024-03-13T10:02:34.874Z,29.80
2024-03-13T10:07:32.166Z,30.47
2024-03-13T10:12:35.688Z,30.29
2024-03-13T10:17:32.647Z,29.90
2024-03-13T10:22:29.913Z,30.45
2024-03-13T10:27:29.146Z,30.34
2024-03-13T10:32:29.440Z,29.94
2024-03-13T10:37:28.665Z,29.92
2024-03-13T10:42:27.892Z,31.21
2024-03-13T10:47:27.133Z,31.46
2024-03-13T10:52:26.421Z,32.00
2024-03-13T10:57:24.773Z,32.06
2024-03-13T11:02:25.975Z,31.65
2024-03-13T11:07:23.200Z,31.04
2024-03-13T11:12:22.887Z,30.47
2024-03-13T11:17:21.826Z,30.04
2024-03-13T11:22:21.955Z,29.65
2024-03-13T11:27:20.303Z,29.02
2024-03-13T11:32:19.508Z,28.54
2024-03-13T11:37:19.720Z,29.68
2024-03-13T11:42:19.168Z,30.07
2024-03-13T11:47:18.248Z,30.42
2024-03-13T11:52:17.506Z,30.61
2024-03-13T11:57:17.008Z,30.98
2024-03-13T12:02:15.000Z,30.79
2024-03-13T12:07:14.257Z,30.89
2024-03-13T12:12:13.497Z,30.94
2024-03-13T12:17:12.685Z,30.82
2024-03-13T12:22:10.915Z,30.86
2024-03-13T12:27:12.251Z,31.47
2024-03-13T12:32:11.422Z,31.72
2024-03-13T12:37:11.337Z,31.09
2024-03-13T12:42:08.962Z,30.97
2024-03-13T12:47:09.224Z,30.64
2024-03-13T12:52:08.430Z,30.27
2024-03-13T12:57:06.834Z,31.29
2024-03-13T13:02:06.926Z,30.83
2024-03-13T13:07:05.134Z,30.92
2024-03-13T13:12:05.422Z,30.31
2024-03-13T13:17:03.658Z,28.39
2024-03-13T13:22:02.896Z,27.59
2024-03-13T13:27:02.221Z,26.94
2024-03-13T13:32:20.398Z,27.19
2024-03-13T13:37:20.170Z,27.82
2024-03-13T13:42:01.002Z,27.90
2024-03-13T13:47:00.238Z,28.21
2024-03-13T13:51:59.467Z,27.82
2024-03-13T13:56:57.792Z,28.15
2024-03-13T14:01:57.958Z,26.95
2024-03-13T14:06:57.208Z,27.29
2024-03-13T14:11:56.539Z,26.88
2024-03-13T14:16:57.293Z,27.10
2024-03-13T14:21:53.958Z,27.44
2024-03-13T14:26:53.199Z,27.13
2024-03-13T14:31:53.449Z,26.95
2024-03-13T14:36:52.761Z,26.65
2024-03-13T14:41:52.077Z,26.82
2024-03-13T14:46:50.288Z,27.00
2024-03-13T14:51:51.592Z,26.89
2024-03-13T14:57:07.829Z,27.21
2024-03-13T15:02:03.179Z,27.50
2024-03-13T15:07:06.367Z,27.82
2024-03-13T15:12:05.553Z,27.37
2024-03-13T15:17:04.691Z,27.51
2024-03-13T15:22:03.862Z,28.18
2024-03-13T15:26:44.068Z,28.78
2024-03-13T15:31:44.317Z,28.86
2024-03-13T15:36:42.596Z,22.98
2024-03-13T15:41:44.194Z,19.62
2024-03-13T15:46:42.057Z,17.68
2024-03-13T15:51:40.465Z,18.95
2024-03-13T15:56:40.621Z,19.47
2024-03-13T16:01:39.733Z,25.54
2024-03-13T16:06:39.013Z,20.66
2024-03-13T16:11:37.382Z,17.51
2024-03-13T16:16:36.560Z,18.07
2024-03-13T16:21:35.955Z,17.68
2024-03-13T16:26:35.072Z,18.03
2024-03-13T16:31:35.332Z,16.41
2024-03-13T16:36:35.638Z,19.06
2024-03-13T16:41:34.912Z,17.34
2024-03-13T16:46:33.258Z,17.79
2024-03-13T16:51:31.566Z,17.68
2024-03-13T16:56:31.825Z,17.70
2024-03-13T17:01:31.175Z,17.72
2024-03-13T17:06:28.585Z,16.48
2024-03-13T17:11:28.826Z,15.86
2024-03-13T17:16:29.024Z,14.80
2024-03-13T17:21:27.326Z,15.36
2024-03-13T17:26:27.626Z,17.68
2024-03-13T17:31:25.862Z,24.57
2024-03-13T17:36:27.204Z,24.99
2024-03-13T17:41:26.390Z,25.24
2024-03-13T17:46:24.618Z,25.24
2024-03-13T17:51:23.015Z,25.35
2024-03-13T17:56:22.031Z,25.30
2024-03-13T18:01:21.254Z,24.85
2024-03-13T18:06:20.708Z,25.03
2024-03-13T18:11:19.833Z,25.98
2024-03-13T18:16:19.043Z,27.87
2024-03-13T18:21:20.369Z,28.18
2024-03-13T18:26:17.435Z,28.24
2024-03-13T18:31:17.734Z,27.57
2024-03-13T18:36:17.085Z,27.09
2024-03-13T18:41:15.164Z,26.09
2024-03-13T18:46:14.453Z,25.51
2024-03-13T18:51:13.766Z,25.27
2024-03-13T18:56:13.992Z,25.23
2024-03-13T19:01:12.299Z,25.06
2024-03-13T19:06:12.576Z,24.50
2024-03-13T19:11:10.907Z,24.62
2024-03-13T19:16:10.132Z,27.19
2024-03-13T19:21:09.450Z,28.02
2024-03-13T19:26:10.543Z,28.29
2024-03-13T19:31:07.799Z,28.61
2024-03-13T19:36:07.054Z,28.43
2024-03-13T19:41:07.299Z,28.30
2024-03-13T19:46:07.545Z,27.40
2024-03-13T19:51:04.870Z,26.97
2024-03-13T19:56:05.187Z,26.12
2024-03-13T20:01:06.576Z,25.98
2024-03-13T20:06:04.807Z,26.77
2024-03-13T20:11:04.034Z,27.55
2024-03-13T20:16:02.326Z,28.03
2024-03-13T20:21:00.639Z,28.19
2024-03-13T20:26:00.724Z,28.07
2024-03-13T20:31:00.966Z,27.81
2024-03-13T20:35:58.038Z,27.29
2024-03-13T20:40:58.213Z,26.77
2024-03-13T20:45:57.600Z,26.91
2024-03-13T20:50:55.755Z,26.52
2024-03-13T20:55:55.620Z,26.07
2024-03-13T21:00:53.988Z,26.66
2024-03-13T21:05:54.098Z,27.31
2024-03-13T21:10:52.306Z,28.81
2024-03-13T21:15:56.985Z,23.73
2024-03-13T21:20:50.881Z,14.77
2024-03-13T21:25:51.133Z,13.10
2024-03-13T21:30:49.426Z,12.89
2024-03-13T21:35:48.701Z,12.56
2024-03-13T21:40:48.954Z,11.70
2024-03-13T21:45:47.566Z,11.32
2024-03-13T21:50:47.453Z,10.81
2024-03-13T21:55:47.656Z,10.78
2024-03-13T22:00:44.977Z,10.70
2024-03-13T22:05:44.267Z,10.45
2024-03-13T22:10:44.523Z,10.30
2024-03-13T22:15:42.763Z,10.40
2024-03-13T22:20:41.994Z,10.42
2024-03-13T22:25:41.303Z,10.96
2024-03-13T22:30:41.416Z,11.28
2024-03-13T22:35:39.694Z,10.23
2024-03-13T22:40:39.968Z,10.08
2024-03-13T22:45:39.313Z,9.99
2024-03-13T22:50:38.556Z,9.97
2024-03-13T22:55:36.880Z,16.57
2024-03-13T23:00:36.161Z,21.99
2024-03-13T23:05:36.476Z,22.18
2024-03-13T23:10:35.711Z,22.39
2024-03-13T23:15:33.992Z,21.86
2024-03-13T23:20:33.246Z,21.88
2024-03-13T23:25:34.517Z,21.64
2024-03-13T23:30:31.899Z,21.62
2024-03-13T23:35:31.063Z,21.03
2024-03-13T23:40:30.276Z,20.85
2024-03-13T23:45:30.617Z,20.99
2024-03-13T23:50:28.748Z,21.07
2024-03-13T23:55:28.885Z,20.99
